sensor_id;sensor_type;location;lat;lon;timestamp;P1;durP1;ratioP1;P2;durP2;ratioP2
4138;SDS011;2083;51.034;6.996;2022-07-04T00:00:13;1.70;;;1.60;;
4138;SDS011;2083;51.034;6.996;2022-07-04T00:02:40;3.03;;;1.57;;
4138;SDS011;2083;51.034;6.996;2022-07-04T00:05:07;1.30;;;1.20;;
4138;SDS011;2083;51.034;6.996;2022-07-04T00:07:35;1.70;;;1.60;;
4138;SDS011;2083;51.034;6.996;2022-07-04T00:10:01;1.53;;;1.43;;
4138;SDS011;2083;51.034;6.996;2022-07-04T00:12:27;3.50;;;1.73;;
4138;SDS011;2083;51.034;6.996;2022-07-04T00:14:53;1.57;;;1.30;;
4138;SDS011;2083;51.034;6.996;2022-07-04T00:17:19;4.57;;;2.03;;
4138;SDS011;2083;51.034;6.996;2022-07-04T00:19:45;2.60;;;1.37;;
4138;SDS011;2083;51.034;6.996;2022-07-04T00:22:12;3.23;;;2.13;;
4138;SDS011;2083;51.034;6.996;2022-07-04T00:24:38;1.73;;;1.57;;
4138;SDS011;2083;51.034;6.996;2022-07-04T00:27:04;1.40;;;1.30;;
4138;SDS011;2083;51.034;6.996;2022-07-04T00:29:30;1.67;;;1.57;;
4138;SDS011;2083;51.034;6.996;2022-07-04T00:31:56;1.80;;;1.70;;
4138;SDS011;2083;51.034;6.996;2022-07-04T00:34:22;1.70;;;1.60;;
4138;SDS011;2083;51.034;6.996;2022-07-04T00:36:48;1.70;;;1.60;;
4138;SDS011;2083;51.034;6.996;2022-07-04T00:39:14;3.90;;;1.30;;
4138;SDS011;2083;51.034;6.996;2022-07-04T00:41:40;1.63;;;1.53;;
4138;SDS011;2083;51.034;6.996;2022-07-04T00:44:07;2.47;;;1.67;;
4138;SDS011;2083;51.034;6.996;2022-07-04T00:46:33;2.17;;;1.40;;
4138;SDS011;2083;51.034;6.996;2022-07-04T00:49:00;3.47;;;1.67;;
4138;SDS011;2083;51.034;6.996;2022-07-04T00:51:26;1.53;;;1.43;;
4138;SDS011;2083;51.034;6.996;2022-07-04T00:53:52;2.43;;;2.00;;
4138;SDS011;2083;51.034;6.996;2022-07-04T00:56:19;2.33;;;2.13;;
4138;SDS011;2083;51.034;6.996;2022-07-04T00:58:45;11.07;;;1.80;;
4138;SDS011;2083;51.034;6.996;2022-07-04T01:01:11;2.27;;;1.43;;
4138;SDS011;2083;51.034;6.996;2022-07-04T01:03:37;5.90;;;2.00;;
4138;SDS011;2083;51.034;6.996;2022-07-04T01:06:04;7.57;;;1.67;;
4138;SDS011;2083;51.034;6.996;2022-07-04T01:08:34;1.30;;;1.20;;
4138;SDS011;2083;51.034;6.996;2022-07-04T01:11:00;2.00;;;1.90;;
4138;SDS011;2083;51.034;6.996;2022-07-04T01:13:26;1.50;;;1.40;;
4138;SDS011;2083;51.034;6.996;2022-07-04T01:15:52;2.03;;;1.80;;
4138;SDS011;2083;51.034;6.996;2022-07-04T01:18:18;2.77;;;2.57;;
4138;SDS011;2083;51.034;6.996;2022-07-04T01:20:45;7.23;;;1.63;;
4138;SDS011;2083;51.034;6.996;2022-07-04T01:23:12;2.30;;;1.90;;
4138;SDS011;2083;51.034;6.996;2022-07-04T01:25:38;4.43;;;1.90;;
4138;SDS011;2083;51.034;6.996;2022-07-04T01:28:04;3.03;;;1.70;;
4138;SDS011;2083;51.034;6.996;2022-07-04T01:30:32;6.60;;;1.87;;
4138;SDS011;2083;51.034;6.996;2022-07-04T01:32:58;6.10;;;4.27;;
4138;SDS011;2083;51.034;6.996;2022-07-04T01:35:24;3.27;;;2.17;;
4138;SDS011;2083;51.034;6.996;2022-07-04T01:37:50;5.20;;;2.03;;
4138;SDS011;2083;51.034;6.996;2022-07-04T01:40:16;2.60;;;1.63;;
4138;SDS011;2083;51.034;6.996;2022-07-04T01:42:42;5.30;;;1.93;;
4138;SDS011;2083;51.034;6.996;2022-07-04T01:45:09;2.30;;;2.20;;
4138;SDS011;2083;51.034;6.996;2022-07-04T01:47:35;5.53;;;2.20;;
4138;SDS011;2083;51.034;6.996;2022-07-04T01:50:02;2.00;;;1.90;;
4138;SDS011;2083;51.034;6.996;2022-07-04T01:52:28;1.63;;;1.53;;
4138;SDS011;2083;51.034;6.996;2022-07-04T01:54:54;2.33;;;1.77;;
4138;SDS011;2083;51.034;6.996;2022-07-04T01:57:20;2.80;;;2.20;;
4138;SDS011;2083;51.034;6.996;2022-07-04T01:59:46;6.00;;;2.17;;
4138;SDS011;2083;51.034;6.996;2022-07-04T02:02:30;4.27;;;2.20;;
4138;SDS011;2083;51.034;6.996;2022-07-04T02:04:56;6.40;;;2.87;;
4138;SDS011;2083;51.034;6.996;2022-07-04T02:07:22;3.23;;;2.17;;
4138;SDS011;2083;51.034;6.996;2022-07-04T02:09:48;2.17;;;2.07;;
4138;SDS011;2083;51.034;6.996;2022-07-04T02:12:14;4.60;;;2.20;;
4138;SDS011;2083;51.034;6.996;2022-07-04T02:14:59;6.40;;;2.17;;
4138;SDS011;2083;51.034;6.996;2022-07-04T02:17:25;4.43;;;2.33;;
4138;SDS011;2083;51.034;6.996;2022-07-04T02:19:51;3.73;;;2.27;;
4138;SDS011;2083;51.034;6.996;2022-07-04T02:22:17;3.10;;;1.77;;
4138;SDS011;2083;51.034;6.996;2022-07-04T02:24:43;2.50;;;2.23;;
4138;SDS011;2083;51.034;6.996;2022-07-04T02:27:10;10.90;;;1.87;;
4138;SDS011;2083;51.034;6.996;2022-07-04T02:29:36;4.33;;;2.17;;
4138;SDS011;2083;51.034;6.996;2022-07-04T02:32:02;2.03;;;1.90;;
4138;SDS011;2083;51.034;6.996;2022-07-04T02:34:28;2.97;;;1.57;;
4138;SDS011;2083;51.034;6.996;2022-07-04T02:36:54;2.30;;;1.90;;
4138;SDS011;2083;51.034;6.996;2022-07-04T02:39:20;1.90;;;1.80;;
4138;SDS011;2083;51.034;6.996;2022-07-04T02:41:46;2.40;;;2.00;;
4138;SDS011;2083;51.034;6.996;2022-07-04T02:44:12;5.87;;;2.23;;
4138;SDS011;2083;51.034;6.996;2022-07-04T02:46:38;2.50;;;1.70;;
4138;SDS011;2083;51.034;6.996;2022-07-04T02:49:04;3.73;;;2.10;;
4138;SDS011;2083;51.034;6.996;2022-07-04T02:51:30;2.80;;;2.03;;
4138;SDS011;2083;51.034;6.996;2022-07-04T02:53:57;3.37;;;2.43;;
4138;SDS011;2083;51.034;6.996;2022-07-04T02:56:23;2.80;;;2.10;;
4138;SDS011;2083;51.034;6.996;2022-07-04T02:58:48;13.43;;;2.90;;
4138;SDS011;2083;51.034;6.996;2022-07-04T03:01:14;2.77;;;2.57;;
4138;SDS011;2083;51.034;6.996;2022-07-04T03:03:41;4.43;;;2.60;;
4138;SDS011;2083;51.034;6.996;2022-07-04T03:06:07;2.93;;;2.43;;
4138;SDS011;2083;51.034;6.996;2022-07-04T03:08:34;2.47;;;2.37;;
4138;SDS011;2083;51.034;6.996;2022-07-04T03:11:00;3.30;;;2.63;;
4138;SDS011;2083;51.034;6.996;2022-07-04T03:13:26;5.70;;;2.63;;
4138;SDS011;2083;51.034;6.996;2022-07-04T03:15:52;2.47;;;2.37;;
4138;SDS011;2083;51.034;6.996;2022-07-04T03:18:18;2.87;;;2.67;;
4138;SDS011;2083;51.034;6.996;2022-07-04T03:20:44;3.10;;;2.90;;
4138;SDS011;2083;51.034;6.996;2022-07-04T03:23:10;5.97;;;3.07;;
4138;SDS011;2083;51.034;6.996;2022-07-04T03:25:36;2.93;;;2.83;;
4138;SDS011;2083;51.034;6.996;2022-07-04T03:28:02;4.60;;;4.20;;
4138;SDS011;2083;51.034;6.996;2022-07-04T03:30:28;4.20;;;3.80;;
4138;SDS011;2083;51.034;6.996;2022-07-04T03:32:54;9.40;;;3.63;;
4138;SDS011;2083;51.034;6.996;2022-07-04T03:35:20;3.60;;;3.40;;
4138;SDS011;2083;51.034;6.996;2022-07-04T03:37:46;3.90;;;3.60;;
4138;SDS011;2083;51.034;6.996;2022-07-04T03:40:12;4.33;;;3.90;;
4138;SDS011;2083;51.034;6.996;2022-07-04T03:42:38;4.63;;;3.70;;
4138;SDS011;2083;51.034;6.996;2022-07-04T03:45:04;4.10;;;3.97;;
4138;SDS011;2083;51.034;6.996;2022-07-04T03:47:31;5.73;;;4.00;;
4138;SDS011;2083;51.034;6.996;2022-07-04T03:49:57;3.90;;;3.80;;
4138;SDS011;2083;51.034;6.996;2022-07-04T03:52:23;3.47;;;3.30;;
4138;SDS011;2083;51.034;6.996;2022-07-04T03:54:49;3.50;;;3.30;;
4138;SDS011;2083;51.034;6.996;2022-07-04T03:57:15;3.80;;;3.50;;
4138;SDS011;2083;51.034;6.996;2022-07-04T03:59:41;3.43;;;3.20;;
4138;SDS011;2083;51.034;6.996;2022-07-04T04:02:07;4.57;;;3.43;;
4138;SDS011;2083;51.034;6.996;2022-07-04T04:04:33;3.23;;;3.03;;
4138;SDS011;2083;51.034;6.996;2022-07-04T04:07:18;3.10;;;2.90;;
4138;SDS011;2083;51.034;6.996;2022-07-04T04:09:44;3.73;;;3.43;;
4138;SDS011;2083;51.034;6.996;2022-07-04T04:12:10;3.20;;;2.90;;
4138;SDS011;2083;51.034;6.996;2022-07-04T04:14:36;3.47;;;3.27;;
4138;SDS011;2083;51.034;6.996;2022-07-04T04:17:02;4.70;;;4.00;;
4138;SDS011;2083;51.034;6.996;2022-07-04T04:19:28;4.70;;;3.30;;
4138;SDS011;2083;51.034;6.996;2022-07-04T04:21:54;3.20;;;2.60;;
4138;SDS011;2083;51.034;6.996;2022-07-04T04:24:20;4.20;;;2.70;;
4138;SDS011;2083;51.034;6.996;2022-07-04T04:26:46;4.40;;;3.00;;
4138;SDS011;2083;51.034;6.996;2022-07-04T04:29:12;4.00;;;3.70;;
4138;SDS011;2083;51.034;6.996;2022-07-04T04:31:38;14.60;;;3.70;;
4138;SDS011;2083;51.034;6.996;2022-07-04T04:34:04;3.50;;;2.63;;
4138;SDS011;2083;51.034;6.996;2022-07-04T04:36:30;3.47;;;3.23;;
4138;SDS011;2083;51.034;6.996;2022-07-04T04:38:56;6.10;;;2.77;;
4138;SDS011;2083;51.034;6.996;2022-07-04T04:41:22;6.03;;;2.60;;
4138;SDS011;2083;51.034;6.996;2022-07-04T04:43:48;3.33;;;3.00;;
4138;SDS011;2083;51.034;6.996;2022-07-04T04:46:14;2.63;;;2.33;;
4138;SDS011;2083;51.034;6.996;2022-07-04T04:48:40;4.60;;;2.90;;
4138;SDS011;2083;51.034;6.996;2022-07-04T04:51:06;3.03;;;2.73;;
4138;SDS011;2083;51.034;6.996;2022-07-04T04:53:32;3.60;;;2.87;;
4138;SDS011;2083;51.034;6.996;2022-07-04T04:55:58;4.23;;;2.97;;
4138;SDS011;2083;51.034;6.996;2022-07-04T04:58:24;5.57;;;2.90;;
4138;SDS011;2083;51.034;6.996;2022-07-04T05:00:50;2.97;;;2.67;;
4138;SDS011;2083;51.034;6.996;2022-07-04T05:03:16;4.60;;;2.90;;
4138;SDS011;2083;51.034;6.996;2022-07-04T05:05:42;4.63;;;2.77;;
4138;SDS011;2083;51.034;6.996;2022-07-04T05:08:10;4.20;;;2.93;;
4138;SDS011;2083;51.034;6.996;2022-07-04T05:10:37;3.40;;;2.17;;
4138;SDS011;2083;51.034;6.996;2022-07-04T05:13:03;3.77;;;2.90;;
4138;SDS011;2083;51.034;6.996;2022-07-04T05:15:29;5.70;;;3.40;;
4138;SDS011;2083;51.034;6.996;2022-07-04T05:17:55;5.70;;;2.90;;
4138;SDS011;2083;51.034;6.996;2022-07-04T05:20:21;4.50;;;2.77;;
4138;SDS011;2083;51.034;6.996;2022-07-04T05:22:47;8.10;;;3.17;;
4138;SDS011;2083;51.034;6.996;2022-07-04T05:25:13;5.30;;;2.80;;
4138;SDS011;2083;51.034;6.996;2022-07-04T05:27:39;3.97;;;3.17;;
4138;SDS011;2083;51.034;6.996;2022-07-04T05:30:05;5.03;;;3.60;;
4138;SDS011;2083;51.034;6.996;2022-07-04T05:32:31;6.43;;;3.47;;
4138;SDS011;2083;51.034;6.996;2022-07-04T05:34:57;5.27;;;3.50;;
4138;SDS011;2083;51.034;6.996;2022-07-04T05:37:24;6.43;;;3.73;;
4138;SDS011;2083;51.034;6.996;2022-07-04T05:39:49;4.40;;;3.33;;
4138;SDS011;2083;51.034;6.996;2022-07-04T05:42:16;4.20;;;3.40;;
4138;SDS011;2083;51.034;6.996;2022-07-04T05:44:41;6.97;;;3.07;;
4138;SDS011;2083;51.034;6.996;2022-07-04T05:47:07;5.83;;;3.30;;
4138;SDS011;2083;51.034;6.996;2022-07-04T05:49:33;7.90;;;4.10;;
4138;SDS011;2083;51.034;6.996;2022-07-04T05:51:59;13.20;;;3.47;;
4138;SDS011;2083;51.034;6.996;2022-07-04T05:54:26;3.73;;;3.40;;
4138;SDS011;2083;51.034;6.996;2022-07-04T05:56:52;4.20;;;3.63;;
4138;SDS011;2083;51.034;6.996;2022-07-04T05:59:18;7.83;;;3.20;;
4138;SDS011;2083;51.034;6.996;2022-07-04T06:01:44;5.70;;;3.60;;
4138;SDS011;2083;51.034;6.996;2022-07-04T06:04:10;6.10;;;3.83;;
4138;SDS011;2083;51.034;6.996;2022-07-04T06:06:36;7.67;;;3.80;;
4138;SDS011;2083;51.034;6.996;2022-07-04T06:09:02;4.20;;;3.90;;
4138;SDS011;2083;51.034;6.996;2022-07-04T06:11:29;3.40;;;3.10;;
4138;SDS011;2083;51.034;6.996;2022-07-04T06:13:56;8.53;;;3.30;;
4138;SDS011;2083;51.034;6.996;2022-07-04T06:16:22;4.07;;;3.70;;
4138;SDS011;2083;51.034;6.996;2022-07-04T06:18:47;5.27;;;4.47;;
4138;SDS011;2083;51.034;6.996;2022-07-04T06:21:13;7.87;;;5.13;;
4138;SDS011;2083;51.034;6.996;2022-07-04T06:23:39;7.30;;;4.77;;
4138;SDS011;2083;51.034;6.996;2022-07-04T06:26:05;6.13;;;4.20;;
4138;SDS011;2083;51.034;6.996;2022-07-04T06:28:31;12.27;;;4.43;;
4138;SDS011;2083;51.034;6.996;2022-07-04T06:30:57;3.90;;;3.33;;
4138;SDS011;2083;51.034;6.996;2022-07-04T06:33:23;9.43;;;3.97;;
4138;SDS011;2083;51.034;6.996;2022-07-04T06:35:49;7.40;;;3.70;;
4138;SDS011;2083;51.034;6.996;2022-07-04T06:38:25;3.47;;;3.17;;
4138;SDS011;2083;51.034;6.996;2022-07-04T06:40:55;14.73;;;3.53;;
4138;SDS011;2083;51.034;6.996;2022-07-04T06:43:22;5.50;;;2.57;;
4138;SDS011;2083;51.034;6.996;2022-07-04T06:45:48;5.90;;;2.80;;
4138;SDS011;2083;51.034;6.996;2022-07-04T06:48:14;8.07;;;2.70;;
4138;SDS011;2083;51.034;6.996;2022-07-04T06:50:40;8.83;;;2.83;;
4138;SDS011;2083;51.034;6.996;2022-07-04T06:53:07;6.73;;;2.50;;
4138;SDS011;2083;51.034;6.996;2022-07-04T06:55:39;7.00;;;2.67;;
4138;SDS011;2083;51.034;6.996;2022-07-04T06:58:06;3.20;;;2.30;;
4138;SDS011;2083;51.034;6.996;2022-07-04T07:00:33;6.00;;;2.30;;
4138;SDS011;2083;51.034;6.996;2022-07-04T07:02:59;3.37;;;1.83;;
4138;SDS011;2083;51.034;6.996;2022-07-04T07:05:26;5.13;;;2.00;;
4138;SDS011;2083;51.034;6.996;2022-07-04T07:39:44;3.23;;;1.57;;
4138;SDS011;2083;51.034;6.996;2022-07-04T07:42:10;2.60;;;1.53;;
4138;SDS011;2083;51.034;6.996;2022-07-04T07:44:36;3.60;;;0.93;;
4138;SDS011;2083;51.034;6.996;2022-07-04T07:47:02;1.87;;;0.70;;
4138;SDS011;2083;51.034;6.996;2022-07-04T07:49:28;2.30;;;0.77;;
4138;SDS011;2083;51.034;6.996;2022-07-04T07:51:54;9.17;;;0.80;;
4138;SDS011;2083;51.034;6.996;2022-07-04T07:54:21;1.30;;;0.93;;
4138;SDS011;2083;51.034;6.996;2022-07-04T07:56:47;1.03;;;0.83;;
4138;SDS011;2083;51.034;6.996;2022-07-04T07:59:13;2.37;;;0.90;;
4138;SDS011;2083;51.034;6.996;2022-07-04T08:01:39;2.50;;;0.80;;
4138;SDS011;2083;51.034;6.996;2022-07-04T08:04:05;1.00;;;0.77;;
4138;SDS011;2083;51.034;6.996;2022-07-04T08:06:49;4.30;;;0.80;;
4138;SDS011;2083;51.034;6.996;2022-07-04T08:09:15;0.80;;;0.67;;
4138;SDS011;2083;51.034;6.996;2022-07-04T08:11:41;0.90;;;0.80;;
4138;SDS011;2083;51.034;6.996;2022-07-04T08:14:08;1.70;;;0.73;;
4138;SDS011;2083;51.034;6.996;2022-07-04T08:16:34;1.00;;;0.80;;
4138;SDS011;2083;51.034;6.996;2022-07-04T08:19:01;2.07;;;1.10;;
4138;SDS011;2083;51.034;6.996;2022-07-04T08:21:27;1.83;;;0.60;;
4138;SDS011;2083;51.034;6.996;2022-07-04T08:23:53;0.80;;;0.73;;
4138;SDS011;2083;51.034;6.996;2022-07-04T08:26:19;3.63;;;0.60;;
4138;SDS011;2083;51.034;6.996;2022-07-04T08:28:45;0.80;;;0.70;;
4138;SDS011;2083;51.034;6.996;2022-07-04T08:31:11;0.70;;;0.60;;
4138;SDS011;2083;51.034;6.996;2022-07-04T08:33:37;0.83;;;0.60;;
4138;SDS011;2083;51.034;6.996;2022-07-04T08:36:03;2.00;;;0.80;;
4138;SDS011;2083;51.034;6.996;2022-07-04T08:38:29;1.10;;;0.70;;
4138;SDS011;2083;51.034;6.996;2022-07-04T08:40:56;0.90;;;0.60;;
4138;SDS011;2083;51.034;6.996;2022-07-04T08:43:22;2.73;;;0.70;;
4138;SDS011;2083;51.034;6.996;2022-07-04T08:45:49;1.00;;;0.70;;
4138;SDS011;2083;51.034;6.996;2022-07-04T08:48:17;1.77;;;0.70;;
4138;SDS011;2083;51.034;6.996;2022-07-04T08:50:47;0.73;;;0.70;;
4138;SDS011;2083;51.034;6.996;2022-07-04T08:53:20;1.97;;;1.50;;
4138;SDS011;2083;51.034;6.996;2022-07-04T08:55:47;6.23;;;0.80;;
4138;SDS011;2083;51.034;6.996;2022-07-04T08:58:32;1.27;;;0.63;;
4138;SDS011;2083;51.034;6.996;2022-07-04T09:01:00;1.83;;;0.60;;
4138;SDS011;2083;51.034;6.996;2022-07-04T09:03:26;2.63;;;0.60;;
4138;SDS011;2083;51.034;6.996;2022-07-04T09:05:53;0.70;;;0.60;;
4138;SDS011;2083;51.034;6.996;2022-07-04T09:08:19;0.60;;;0.43;;
4138;SDS011;2083;51.034;6.996;2022-07-04T09:10:45;0.83;;;0.50;;
4138;SDS011;2083;51.034;6.996;2022-07-04T09:13:12;0.77;;;0.40;;
4138;SDS011;2083;51.034;6.996;2022-07-04T09:15:40;0.70;;;0.70;;
4138;SDS011;2083;51.034;6.996;2022-07-04T09:18:08;1.50;;;0.53;;
4138;SDS011;2083;51.034;6.996;2022-07-04T09:20:44;3.70;;;0.50;;
4138;SDS011;2083;51.034;6.996;2022-07-04T09:23:16;0.80;;;0.50;;
4138;SDS011;2083;51.034;6.996;2022-07-04T09:25:42;1.50;;;0.60;;
4138;SDS011;2083;51.034;6.996;2022-07-04T09:28:08;1.53;;;0.60;;
4138;SDS011;2083;51.034;6.996;2022-07-04T09:30:34;0.70;;;0.50;;
4138;SDS011;2083;51.034;6.996;2022-07-04T09:33:12;1.03;;;0.50;;
4138;SDS011;2083;51.034;6.996;2022-07-04T09:35:38;2.27;;;0.70;;
4138;SDS011;2083;51.034;6.996;2022-07-04T09:38:04;2.77;;;0.70;;
4138;SDS011;2083;51.034;6.996;2022-07-04T09:40:31;0.80;;;0.60;;
4138;SDS011;2083;51.034;6.996;2022-07-04T09:42:59;3.40;;;0.70;;
4138;SDS011;2083;51.034;6.996;2022-07-04T09:45:25;0.70;;;0.60;;
4138;SDS011;2083;51.034;6.996;2022-07-04T09:47:55;1.87;;;0.70;;
4138;SDS011;2083;51.034;6.996;2022-07-04T09:50:21;0.80;;;0.63;;
4138;SDS011;2083;51.034;6.996;2022-07-04T09:55:21;4.37;;;1.20;;
4138;SDS011;2083;51.034;6.996;2022-07-04T09:57:47;2.90;;;0.90;;
4138;SDS011;2083;51.034;6.996;2022-07-04T10:02:42;1.20;;;0.70;;
4138;SDS011;2083;51.034;6.996;2022-07-04T10:05:09;2.80;;;0.70;;
4138;SDS011;2083;51.034;6.996;2022-07-04T10:07:36;0.90;;;0.60;;
4138;SDS011;2083;51.034;6.996;2022-07-04T10:12:50;2.67;;;0.93;;
4138;SDS011;2083;51.034;6.996;2022-07-04T10:15:16;1.47;;;0.70;;
4138;SDS011;2083;51.034;6.996;2022-07-04T10:17:42;2.40;;;1.00;;
4138;SDS011;2083;51.034;6.996;2022-07-04T10:20:08;3.37;;;1.37;;
4138;SDS011;2083;51.034;6.996;2022-07-04T10:22:35;0.70;;;0.60;;
4138;SDS011;2083;51.034;6.996;2022-07-04T10:25:02;1.73;;;0.70;;
4138;SDS011;2083;51.034;6.996;2022-07-04T10:27:28;2.60;;;0.70;;
4138;SDS011;2083;51.034;6.996;2022-07-04T10:29:54;1.70;;;1.07;;
4138;SDS011;2083;51.034;6.996;2022-07-04T10:32:25;0.80;;;0.80;;
4138;SDS011;2083;51.034;6.996;2022-07-04T10:34:51;0.60;;;0.50;;
4138;SDS011;2083;51.034;6.996;2022-07-04T10:37:17;0.70;;;0.60;;
4138;SDS011;2083;51.034;6.996;2022-07-04T10:39:43;1.63;;;0.60;;
4138;SDS011;2083;51.034;6.996;2022-07-04T10:42:11;1.00;;;0.73;;
4138;SDS011;2083;51.034;6.996;2022-07-04T10:44:48;0.90;;;0.80;;
4138;SDS011;2083;51.034;6.996;2022-07-04T10:47:21;1.57;;;0.70;;
4138;SDS011;2083;51.034;6.996;2022-07-04T10:49:49;1.87;;;0.80;;
4138;SDS011;2083;51.034;6.996;2022-07-04T10:52:15;3.63;;;1.93;;
4138;SDS011;2083;51.034;6.996;2022-07-04T10:54:41;1.53;;;0.70;;
4138;SDS011;2083;51.034;6.996;2022-07-04T10:57:11;1.83;;;0.80;;
4138;SDS011;2083;51.034;6.996;2022-07-04T10:59:38;1.40;;;0.60;;
4138;SDS011;2083;51.034;6.996;2022-07-04T11:04:46;1.67;;;1.37;;
4138;SDS011;2083;51.034;6.996;2022-07-04T11:07:13;3.23;;;0.87;;
4138;SDS011;2083;51.034;6.996;2022-07-04T11:09:39;5.40;;;0.90;;
4138;SDS011;2083;51.034;6.996;2022-07-04T11:12:07;2.30;;;1.03;;
4138;SDS011;2083;51.034;6.996;2022-07-04T11:14:43;1.00;;;0.70;;
4138;SDS011;2083;51.034;6.996;2022-07-04T11:17:14;0.93;;;0.60;;
4138;SDS011;2083;51.034;6.996;2022-07-04T11:19:40;2.00;;;0.83;;
4138;SDS011;2083;51.034;6.996;2022-07-04T11:22:07;2.63;;;0.83;;
4138;SDS011;2083;51.034;6.996;2022-07-04T11:24:35;3.40;;;0.80;;
4138;SDS011;2083;51.034;6.996;2022-07-04T11:27:01;1.43;;;0.80;;
4138;SDS011;2083;51.034;6.996;2022-07-04T11:29:28;1.00;;;0.80;;
4138;SDS011;2083;51.034;6.996;2022-07-04T11:31:54;1.80;;;0.90;;
4138;SDS011;2083;51.034;6.996;2022-07-04T11:34:21;1.07;;;0.80;;
4138;SDS011;2083;51.034;6.996;2022-07-04T11:36:48;2.03;;;0.73;;
4138;SDS011;2083;51.034;6.996;2022-07-04T11:39:15;0.80;;;0.80;;
4138;SDS011;2083;51.034;6.996;2022-07-04T11:41:45;7.57;;;1.30;;
4138;SDS011;2083;51.034;6.996;2022-07-04T11:44:31;1.70;;;0.77;;
4138;SDS011;2083;51.034;6.996;2022-07-04T11:47:22;3.27;;;0.70;;
4138;SDS011;2083;51.034;6.996;2022-07-04T11:49:55;6.40;;;0.97;;
4138;SDS011;2083;51.034;6.996;2022-07-04T11:52:22;3.83;;;0.80;;
4138;SDS011;2083;51.034;6.996;2022-07-04T11:54:49;1.03;;;0.93;;
4138;SDS011;2083;51.034;6.996;2022-07-04T11:57:16;4.30;;;0.90;;
4138;SDS011;2083;51.034;6.996;2022-07-04T11:59:43;1.23;;;0.90;;
4138;SDS011;2083;51.034;6.996;2022-07-04T12:02:13;3.67;;;0.87;;
4138;SDS011;2083;51.034;6.996;2022-07-04T12:04:40;19.93;;;1.13;;
4138;SDS011;2083;51.034;6.996;2022-07-04T12:07:10;1.90;;;1.17;;
4138;SDS011;2083;51.034;6.996;2022-07-04T12:09:36;1.77;;;1.00;;
4138;SDS011;2083;51.034;6.996;2022-07-04T12:12:02;3.10;;;1.00;;
4138;SDS011;2083;51.034;6.996;2022-07-04T12:14:28;3.00;;;0.90;;
4138;SDS011;2083;51.034;6.996;2022-07-04T12:17:11;0.80;;;0.70;;
4138;SDS011;2083;51.034;6.996;2022-07-04T12:19:37;13.43;;;1.10;;
4138;SDS011;2083;51.034;6.996;2022-07-04T12:22:03;4.77;;;1.23;;
4138;SDS011;2083;51.034;6.996;2022-07-04T12:24:39;8.60;;;3.43;;
4138;SDS011;2083;51.034;6.996;2022-07-04T12:27:05;3.37;;;1.10;;
4138;SDS011;2083;51.034;6.996;2022-07-04T12:29:30;3.00;;;1.20;;
4138;SDS011;2083;51.034;6.996;2022-07-04T12:31:56;1.10;;;1.00;;
4138;SDS011;2083;51.034;6.996;2022-07-04T12:34:22;1.50;;;1.20;;
4138;SDS011;2083;51.034;6.996;2022-07-04T12:36:49;4.00;;;1.07;;
4138;SDS011;2083;51.034;6.996;2022-07-04T12:44:48;1.90;;;0.90;;
4138;SDS011;2083;51.034;6.996;2022-07-04T12:47:15;3.50;;;1.17;;
4138;SDS011;2083;51.034;6.996;2022-07-04T12:49:42;2.20;;;0.90;;
4138;SDS011;2083;51.034;6.996;2022-07-04T12:52:11;2.50;;;1.00;;
4138;SDS011;2083;51.034;6.996;2022-07-04T12:54:37;1.67;;;0.93;;
4138;SDS011;2083;51.034;6.996;2022-07-04T12:57:13;1.30;;;1.03;;
4138;SDS011;2083;51.034;6.996;2022-07-04T12:59:43;7.03;;;1.20;;
4138;SDS011;2083;51.034;6.996;2022-07-04T13:02:10;3.00;;;1.20;;
4138;SDS011;2083;51.034;6.996;2022-07-04T13:04:39;5.60;;;1.13;;
4138;SDS011;2083;51.034;6.996;2022-07-04T13:07:12;5.03;;;1.00;;
4138;SDS011;2083;51.034;6.996;2022-07-04T13:09:39;3.13;;;0.90;;
4138;SDS011;2083;51.034;6.996;2022-07-04T13:12:06;3.20;;;1.00;;
4138;SDS011;2083;51.034;6.996;2022-07-04T13:14:51;2.60;;;1.00;;
4138;SDS011;2083;51.034;6.996;2022-07-04T13:17:17;2.27;;;1.20;;
4138;SDS011;2083;51.034;6.996;2022-07-04T13:19:44;0.80;;;0.80;;
4138;SDS011;2083;51.034;6.996;2022-07-04T13:22:10;3.90;;;1.33;;
4138;SDS011;2083;51.034;6.996;2022-07-04T13:24:36;5.07;;;1.50;;
4138;SDS011;2083;51.034;6.996;2022-07-04T13:27:02;4.20;;;1.20;;
4138;SDS011;2083;51.034;6.996;2022-07-04T13:29:28;3.57;;;0.90;;
4138;SDS011;2083;51.034;6.996;2022-07-04T13:31:54;1.73;;;1.07;;
4138;SDS011;2083;51.034;6.996;2022-07-04T13:34:20;5.00;;;1.07;;
4138;SDS011;2083;51.034;6.996;2022-07-04T13:36:46;12.83;;;1.57;;
4138;SDS011;2083;51.034;6.996;2022-07-04T13:39:12;2.37;;;1.03;;
4138;SDS011;2083;51.034;6.996;2022-07-04T13:41:38;4.87;;;1.10;;
4138;SDS011;2083;51.034;6.996;2022-07-04T13:44:05;1.83;;;1.10;;
4138;SDS011;2083;51.034;6.996;2022-07-04T13:46:33;1.10;;;0.77;;
4138;SDS011;2083;51.034;6.996;2022-07-04T13:49:02;3.03;;;0.97;;
4138;SDS011;2083;51.034;6.996;2022-07-04T13:51:28;1.30;;;1.20;;
4138;SDS011;2083;51.034;6.996;2022-07-04T13:53:55;4.03;;;1.37;;
4138;SDS011;2083;51.034;6.996;2022-07-04T13:56:20;2.17;;;1.23;;
4138;SDS011;2083;51.034;6.996;2022-07-04T13:58:47;1.40;;;1.30;;
4138;SDS011;2083;51.034;6.996;2022-07-04T14:01:13;1.57;;;0.90;;
4138;SDS011;2083;51.034;6.996;2022-07-04T14:03:42;6.37;;;1.00;;
4138;SDS011;2083;51.034;6.996;2022-07-04T14:06:08;1.93;;;1.10;;
4138;SDS011;2083;51.034;6.996;2022-07-04T14:08:34;1.33;;;1.17;;
4138;SDS011;2083;51.034;6.996;2022-07-04T14:11:00;3.90;;;1.03;;
4138;SDS011;2083;51.034;6.996;2022-07-04T14:13:27;3.67;;;1.23;;
4138;SDS011;2083;51.034;6.996;2022-07-04T14:15:53;5.37;;;1.13;;
4138;SDS011;2083;51.034;6.996;2022-07-04T14:18:19;3.47;;;1.37;;
4138;SDS011;2083;51.034;6.996;2022-07-04T14:20:45;3.87;;;1.10;;
4138;SDS011;2083;51.034;6.996;2022-07-04T14:23:11;4.03;;;1.10;;
4138;SDS011;2083;51.034;6.996;2022-07-04T14:25:37;4.53;;;1.60;;
4138;SDS011;2083;51.034;6.996;2022-07-04T14:28:04;2.20;;;1.10;;
4138;SDS011;2083;51.034;6.996;2022-07-04T14:30:30;2.97;;;1.33;;
4138;SDS011;2083;51.034;6.996;2022-07-04T14:32:56;5.20;;;0.90;;
4138;SDS011;2083;51.034;6.996;2022-07-04T14:35:22;3.93;;;1.30;;
4138;SDS011;2083;51.034;6.996;2022-07-04T14:37:48;2.30;;;1.20;;
4138;SDS011;2083;51.034;6.996;2022-07-04T14:40:14;6.13;;;0.97;;
4138;SDS011;2083;51.034;6.996;2022-07-04T14:42:42;3.50;;;0.97;;
4138;SDS011;2083;51.034;6.996;2022-07-04T14:45:09;0.70;;;0.40;;
4138;SDS011;2083;51.034;6.996;2022-07-04T14:47:35;0.60;;;0.30;;
4138;SDS011;2083;51.034;6.996;2022-07-04T14:50:01;0.60;;;0.37;;
4138;SDS011;2083;51.034;6.996;2022-07-04T14:52:28;0.60;;;0.30;;
4138;SDS011;2083;51.034;6.996;2022-07-04T14:54:54;0.60;;;0.30;;
4138;SDS011;2083;51.034;6.996;2022-07-04T14:57:20;0.60;;;0.30;;
4138;SDS011;2083;51.034;6.996;2022-07-04T14:59:46;0.60;;;0.40;;
4138;SDS011;2083;51.034;6.996;2022-07-04T15:02:11;0.60;;;0.30;;
4138;SDS011;2083;51.034;6.996;2022-07-04T15:04:37;0.60;;;0.30;;
4138;SDS011;2083;51.034;6.996;2022-07-04T15:07:03;1.37;;;1.27;;
4138;SDS011;2083;51.034;6.996;2022-07-04T15:09:29;0.60;;;0.30;;
4138;SDS011;2083;51.034;6.996;2022-07-04T15:11:55;0.60;;;0.30;;
4138;SDS011;2083;51.034;6.996;2022-07-04T15:14:21;0.60;;;0.30;;
4138;SDS011;2083;51.034;6.996;2022-07-04T15:16:48;0.80;;;0.60;;
4138;SDS011;2083;51.034;6.996;2022-07-04T15:19:14;1.20;;;0.80;;
4138;SDS011;2083;51.034;6.996;2022-07-04T15:21:42;0.60;;;0.30;;
4138;SDS011;2083;51.034;6.996;2022-07-04T15:24:27;2.73;;;0.80;;
4138;SDS011;2083;51.034;6.996;2022-07-04T15:26:53;3.70;;;1.10;;
4138;SDS011;2083;51.034;6.996;2022-07-04T15:29:20;3.33;;;0.93;;
4138;SDS011;2083;51.034;6.996;2022-07-04T15:31:46;1.60;;;0.90;;
4138;SDS011;2083;51.034;6.996;2022-07-04T15:34:13;12.03;;;1.30;;
4138;SDS011;2083;51.034;6.996;2022-07-04T15:36:39;5.10;;;1.13;;
4138;SDS011;2083;51.034;6.996;2022-07-04T15:39:06;7.87;;;1.50;;
4138;SDS011;2083;51.034;6.996;2022-07-04T15:41:33;2.83;;;1.30;;
4138;SDS011;2083;51.034;6.996;2022-07-04T15:43:58;2.33;;;1.30;;
4138;SDS011;2083;51.034;6.996;2022-07-04T15:46:24;6.07;;;1.10;;
4138;SDS011;2083;51.034;6.996;2022-07-04T15:48:50;1.77;;;1.10;;
4138;SDS011;2083;51.034;6.996;2022-07-04T15:51:16;4.93;;;1.07;;
4138;SDS011;2083;51.034;6.996;2022-07-04T15:53:42;4.30;;;1.37;;
4138;SDS011;2083;51.034;6.996;2022-07-04T15:56:08;1.67;;;1.10;;
4138;SDS011;2083;51.034;6.996;2022-07-04T15:58:34;1.67;;;0.90;;
4138;SDS011;2083;51.034;6.996;2022-07-04T16:01:00;3.47;;;1.30;;